sensor_id;sensor_type;location;lat;lon;timestamp;pressure;altitude;pressure_sealevel;temperature;humidity
58843;BME280;44614;54.356;10.100;2022-10-16T00:01:57;100545.72;;;11.97;100.00
58843;BME280;44614;54.356;10.100;2022-10-16T00:04:22;100555.06;;;11.96;100.00
58843;BME280;44614;54.356;10.100;2022-10-16T00:06:47;100556.97;;;11.95;100.00
58843;BME280;44614;54.356;10.100;2022-10-16T00:09:13;100551.69;;;11.94;100.00
58843;BME280;44614;54.356;10.100;2022-10-16T00:11:38;100545.63;;;11.92;100.00
58843;BME280;44614;54.356;10.100;2022-10-16T00:14:05;100560.94;;;11.88;100.00
58843;BME280;44614;54.356;10.100;2022-10-16T00:16:31;100562.84;;;11.87;100.00
58843;BME280;44614;54.356;10.100;2022-10-16T00:18:56;100567.75;;;11.85;100.00
58843;BME280;44614;54.356;10.100;2022-10-16T00:21:23;100558.00;;;11.83;100.00
58843;BME280;44614;54.356;10.100;2022-10-16T00:23:52;100564.41;;;11.83;100.00
58843;BME280;44614;54.356;10.100;2022-10-16T00:26:17;100571.44;;;11.79;100.00
58843;BME280;44614;54.356;10.100;2022-10-16T00:28:45;100568.06;;;11.77;100.00
58843;BME280;44614;54.356;10.100;2022-10-16T00:31:10;100568.31;;;11.76;100.00
58843;BME280;44614;54.356;10.100;2022-10-16T00:33:37;100571.28;;;11.74;100.00
58843;BME280;44614;54.356;10.100;2022-10-16T00:36:03;100575.13;;;11.73;100.00
58843;BME280;44614;54.356;10.100;2022-10-16T00:38:28;100567.34;;;11.70;100.00
58843;BME280;44614;54.356;10.100;2022-10-16T00:40:53;100563.75;;;11.69;100.00
58843;BME280;44614;54.356;10.100;2022-10-16T00:46:04;100575.47;;;11.65;100.00
58843;BME280;44614;54.356;10.100;2022-10-16T00:48:30;100577.59;;;11.63;100.00
58843;BME280;44614;54.356;10.100;2022-10-16T00:50:55;100573.19;;;11.62;100.00
58843;BME280;44614;54.356;10.100;2022-10-16T00:53:21;100572.56;;;11.60;100.00
58843;BME280;44614;54.356;10.100;2022-10-16T00:55:47;100572.56;;;11.60;100.00
58843;BME280;44614;54.356;10.100;2022-10-16T00:58:12;100581.91;;;11.59;100.00
58843;BME280;44614;54.356;10.100;2022-10-16T01:00:37;100587.41;;;11.59;100.00
58843;BME280;44614;54.356;10.100;2022-10-16T01:03:02;100583.22;;;11.56;100.00
58843;BME280;44614;54.356;10.100;2022-10-16T01:05:42;100587.03;;;11.55;100.00
58843;BME280;44614;54.356;10.100;2022-10-16T01:08:17;100588.13;;;11.54;100.00
58843;BME280;44614;54.356;10.100;2022-10-16T01:11:00;100592.16;;;11.52;100.00
58843;BME280;44614;54.356;10.100;2022-10-16T01:13:28;100599.56;;;11.51;100.00
58843;BME280;44614;54.356;10.100;2022-10-16T01:16:13;100597.66;;;11.52;100.00
58843;BME280;44614;54.356;10.100;2022-10-16T01:18:46;100601.75;;;11.49;100.00
58843;BME280;44614;54.356;10.100;2022-10-16T01:28:53;100615.34;;;11.44;100.00
58843;BME280;44614;54.356;10.100;2022-10-16T01:31:19;100611.16;;;11.41;100.00
58843;BME280;44614;54.356;10.100;2022-10-16T01:33:48;100608.63;;;11.40;100.00
58843;BME280;44614;54.356;10.100;2022-10-16T01:36:17;100612.47;;;11.39;100.00
58843;BME280;44614;54.356;10.100;2022-10-16T01:38:44;100610.34;;;11.41;100.00
58843;BME280;44614;54.356;10.100;2022-10-16T01:41:26;100606.13;;;11.38;100.00
58843;BME280;44614;54.356;10.100;2022-10-16T01:44:02;100601.72;;;11.37;100.00
58843;BME280;44614;54.356;10.100;2022-10-16T01:46:30;100601.09;;;11.35;100.00
58843;BME280;44614;54.356;10.100;2022-10-16T01:48:56;100598.59;;;11.34;100.00
58843;BME280;44614;54.356;10.100;2022-10-16T01:51:22;100595.00;;;11.33;100.00
58843;BME280;44614;54.356;10.100;2022-10-16T01:53:49;100588.88;;;11.31;100.00
58843;BME280;44614;54.356;10.100;2022-10-16T01:56:17;100593.31;;;11.32;100.00
58843;BME280;44614;54.356;10.100;2022-10-16T01:58:45;100596.06;;;11.32;100.00
58843;BME280;44614;54.356;10.100;2022-10-16T02:01:12;100590.56;;;11.32;100.00
58843;BME280;44614;54.356;10.100;2022-10-16T02:03:40;100591.38;;;11.33;100.00
58843;BME280;44614;54.356;10.100;2022-10-16T02:06:06;100588.88;;;11.31;100.00
58843;BME280;44614;54.356;10.100;2022-10-16T02:08:32;100581.72;;;11.30;100.00
58843;BME280;44614;54.356;10.100;2022-10-16T02:10:58;100592.72;;;11.30;100.00
58843;BME280;44614;54.356;10.100;2022-10-16T02:13:35;100599.06;;;11.31;100.00
58843;BME280;44614;54.356;10.100;2022-10-16T02:16:02;100589.13;;;11.30;100.00
58843;BME280;44614;54.356;10.100;2022-10-16T02:18:27;100591.88;;;11.30;100.00
58843;BME280;44614;54.356;10.100;2022-10-16T02:20:57;100584.69;;;11.29;100.00
58843;BME280;44614;54.356;10.100;2022-10-16T02:23:25;100592.09;;;11.28;100.00
58843;BME280;44614;54.356;10.100;2022-10-16T02:25:53;100593.19;;;11.27;100.00
58843;BME280;44614;54.356;10.100;2022-10-16T02:28:20;100585.75;;;11.28;100.00
58843;BME280;44614;54.356;10.100;2022-10-16T02:33:13;100585.53;;;11.29;100.00
58843;BME280;44614;54.356;10.100;2022-10-16T02:35:39;100594.00;;;11.28;100.00
58843;BME280;44614;54.356;10.100;2022-10-16T02:38:05;100586.84;;;11.27;100.00
58843;BME280;44614;54.356;10.100;2022-10-16T02:40:31;100594.25;;;11.26;100.00
58843;BME280;44614;54.356;10.100;2022-10-16T02:42:56;100593.44;;;11.26;100.00
58843;BME280;44614;54.356;10.100;2022-10-16T02:45:22;100599.75;;;11.26;100.00
58843;BME280;44614;54.356;10.100;2022-10-16T02:47:47;100603.34;;;11.27;100.00
58843;BME280;44614;54.356;10.100;2022-10-16T02:50:13;100598.06;;;11.25;100.00
58843;BME280;44614;54.356;10.100;2022-10-16T02:52:38;100595.09;;;11.27;100.00
58843;BME280;44614;54.356;10.100;2022-10-16T02:55:03;100595.09;;;11.27;100.00
58843;BME280;44614;54.356;10.100;2022-10-16T02:57:29;100589.81;;;11.25;100.00
58843;BME280;44614;54.356;10.100;2022-10-16T02:59:54;100600.81;;;11.25;100.00
58843;BME280;44614;54.356;10.100;2022-10-16T03:02:19;100591.13;;;11.22;100.00
58843;BME280;44614;54.356;10.100;2022-10-16T03:04:44;100595.19;;;11.20;100.00
58843;BME280;44614;54.356;10.100;2022-10-16T03:07:10;100605.09;;;11.21;100.00
58843;BME280;44614;54.356;10.100;2022-10-16T03:09:35;100602.59;;;11.19;100.00
58843;BME280;44614;54.356;10.100;2022-10-16T03:12:00;100589.31;;;11.16;100.00
58843;BME280;44614;54.356;10.100;2022-10-16T03:14:25;100595.06;;;11.15;100.00
58843;BME280;44614;54.356;10.100;2022-10-16T03:16:51;100597.19;;;11.13;100.00
58843;BME280;44614;54.356;10.100;2022-10-16T03:19:16;100596.34;;;11.12;100.00
58843;BME280;44614;54.356;10.100;2022-10-16T03:21:42;100592.97;;;11.10;100.00
58843;BME280;44614;54.356;10.100;2022-10-16T03:24:07;100599.56;;;11.09;100.00
58843;BME280;44614;54.356;10.100;2022-10-16T03:26:32;100588.81;;;11.08;100.00
58843;BME280;44614;54.356;10.100;2022-10-16T03:28:57;100597.25;;;11.06;100.00
58843;BME280;44614;54.356;10.100;2022-10-16T03:31:22;100585.69;;;11.04;100.00
58843;BME280;44614;54.356;10.100;2022-10-16T03:33:48;100596.88;;;11.03;100.00
58843;BME280;44614;54.356;10.100;2022-10-16T03:36:13;100596.06;;;11.02;100.00
58843;BME280;44614;54.356;10.100;2022-10-16T03:38:38;100596.06;;;11.02;100.00
58843;BME280;44614;54.356;10.100;2022-10-16T03:41:03;100607.28;;;11.01;100.00
58843;BME280;44614;54.356;10.100;2022-10-16T03:43:29;100610.28;;;10.99;100.00
58843;BME280;44614;54.356;10.100;2022-10-16T03:45:54;100616.22;;;10.96;100.00
58843;BME280;44614;54.356;10.100;2022-10-16T03:48:19;100615.16;;;10.97;100.00
58843;BME280;44614;54.356;10.100;2022-10-16T03:50:44;100616.22;;;10.96;100.00
58843;BME280;44614;54.356;10.100;2022-10-16T03:53:11;100618.16;;;10.95;100.00
58843;BME280;44614;54.356;10.100;2022-10-16T03:55:36;100615.84;;;10.92;100.00
58843;BME280;44614;54.356;10.100;2022-10-16T03:58:01;100621.81;;;10.89;100.00
58843;BME280;44614;54.356;10.100;2022-10-16T04:00:28;100616.31;;;10.89;100.00
58843;BME280;44614;54.356;10.100;2022-10-16T04:02:53;100625.63;;;10.88;100.00
58843;BME280;44614;54.356;10.100;2022-10-16T04:05:19;100621.19;;;10.87;100.00
58843;BME280;44614;54.356;10.100;2022-10-16T04:07:44;100628.59;;;10.87;100.00
58843;BME280;44614;54.356;10.100;2022-10-16T04:10:09;100638.16;;;10.84;100.00
58843;BME280;44614;54.356;10.100;2022-10-16T04:12:35;100630.13;;;10.83;100.00
58843;BME280;44614;54.356;10.100;2022-10-16T04:15:00;100628.69;;;10.80;100.00
58843;BME280;44614;54.356;10.100;2022-10-16T04:17:25;100629.72;;;10.79;100.00
58843;BME280;44614;54.356;10.100;2022-10-16T04:19:50;100628.91;;;10.79;100.00
58843;BME280;44614;54.356;10.100;2022-10-16T04:22:15;100638.47;;;10.76;100.00
58843;BME280;44614;54.356;10.100;2022-10-16T04:24:41;100627.69;;;10.74;100.00
58843;BME280;44614;54.356;10.100;2022-10-16T04:27:06;100630.69;;;10.73;100.00
58843;BME280;44614;54.356;10.100;2022-10-16T04:29:31;100645.44;;;10.72;100.00
58843;BME280;44614;54.356;10.100;2022-10-16T04:31:56;100646.78;;;10.69;100.00
58843;BME280;44614;54.356;10.100;2022-10-16T04:34:21;100649.72;;;10.68;100.00
58843;BME280;44614;54.356;10.100;2022-10-16T04:36:47;100646.97;;;10.68;100.00
58843;BME280;44614;54.356;10.100;2022-10-16T04:39:13;100645.56;;;10.65;100.00
58843;BME280;44614;54.356;10.100;2022-10-16T04:41:38;100647.47;;;10.65;100.00
58843;BME280;44614;54.356;10.100;2022-10-16T04:44:03;100641.97;;;10.65;100.00
58843;BME280;44614;54.356;10.100;2022-10-16T04:46:28;100643.00;;;10.64;100.00
58843;BME280;44614;54.356;10.100;2022-10-16T04:48:54;100645.56;;;10.65;100.00
58843;BME280;44614;54.356;10.100;2022-10-16T04:51:19;100652.72;;;10.66;100.00
58843;BME280;44614;54.356;10.100;2022-10-16T04:53:44;100648.06;;;10.67;100.00
58843;BME280;44614;54.356;10.100;2022-10-16T04:56:09;100657.75;;;10.69;100.00
58843;BME280;44614;54.356;10.100;2022-10-16T04:58:35;100657.75;;;10.69;100.00
58843;BME280;44614;54.356;10.100;2022-10-16T05:01:00;100662.16;;;10.70;100.00
58843;BME280;44614;54.356;10.100;2022-10-16T05:03:25;100670.41;;;10.70;100.00
58843;BME280;44614;54.356;10.100;2022-10-16T05:05:50;100691.09;;;10.73;100.00
58843;BME280;44614;54.356;10.100;2022-10-16T05:08:15;100669.97;;;10.73;100.00
58843;BME280;44614;54.356;10.100;2022-10-16T05:10:42;100664.47;;;10.73;100.00
58843;BME280;44614;54.356;10.100;2022-10-16T05:13:07;100679.66;;;10.76;100.00
58843;BME280;44614;54.356;10.100;2022-10-16T05:15:32;100677.75;;;10.77;100.00
58843;BME280;44614;54.356;10.100;2022-10-16T05:17:58;100674.16;;;10.76;100.00
58843;BME280;44614;54.356;10.100;2022-10-16T05:20:23;100679.66;;;10.76;100.00
58843;BME280;44614;54.356;10.100;2022-10-16T05:22:48;100676.66;;;10.78;100.00
58843;BME280;44614;54.356;10.100;2022-10-16T05:25:14;100682.75;;;10.80;100.00
58843;BME280;44614;54.356;10.100;2022-10-16T05:27:39;100682.56;;;10.81;100.00
58843;BME280;44614;54.356;10.100;2022-10-16T05:30:04;100679.56;;;10.83;100.00
58843;BME280;44614;54.356;10.100;2022-10-16T05:32:30;100686.75;;;10.84;100.00
58843;BME280;44614;54.356;10.100;2022-10-16T05:34:55;100677.44;;;10.85;100.00
58843;BME280;44614;54.356;10.100;2022-10-16T05:37:20;100686.53;;;10.85;100.00
58843;BME280;44614;54.356;10.100;2022-10-16T05:39:45;100696.44;;;10.86;100.00
58843;BME280;44614;54.356;10.100;2022-10-16T05:42:11;100701.91;;;10.86;100.00
58843;BME280;44614;54.356;10.100;2022-10-16T05:44:36;100722.81;;;10.87;100.00
58843;BME280;44614;54.356;10.100;2022-10-16T05:47:01;100710.78;;;10.88;100.00
58843;BME280;44614;54.356;10.100;2022-10-16T05:49:26;100703.38;;;10.89;100.00
58843;BME280;44614;54.356;10.100;2022-10-16T05:51:52;100714.13;;;10.90;100.00
58843;BME280;44614;54.356;10.100;2022-10-16T05:54:17;100706.97;;;10.89;100.00
58843;BME280;44614;54.356;10.100;2022-10-16T05:56:42;100706.72;;;10.91;100.00
58843;BME280;44614;54.356;10.100;2022-10-16T05:59:07;100714.13;;;10.90;100.00
58843;BME280;44614;54.356;10.100;2022-10-16T06:01:33;100713.94;;;10.92;100.00
58843;BME280;44614;54.356;10.100;2022-10-16T06:03:58;100712.59;;;10.94;100.00
58843;BME280;44614;54.356;10.100;2022-10-16T06:06:24;100712.59;;;10.94;100.00
58843;BME280;44614;54.356;10.100;2022-10-16T06:08:50;100715.34;;;10.94;100.00
58843;BME280;44614;54.356;10.100;2022-10-16T06:11:17;100716.19;;;10.95;100.00
58843;BME280;44614;54.356;10.100;2022-10-16T06:13:43;100715.34;;;10.94;100.00
58843;BME280;44614;54.356;10.100;2022-10-16T06:16:10;100718.94;;;10.95;100.00
58843;BME280;44614;54.356;10.100;2022-10-16T06:18:36;100710.47;;;10.96;100.00
58843;BME280;44614;54.356;10.100;2022-10-16T06:21:06;100716.56;;;10.98;100.00
58843;BME280;44614;54.356;10.100;2022-10-16T06:23:31;100752.91;;;11.01;100.00
58843;BME280;44614;54.356;10.100;2022-10-16T06:26:03;100719.72;;;11.02;100.00
58843;BME280;44614;54.356;10.100;2022-10-16T06:28:29;100723.09;;;11.04;100.00
58843;BME280;44614;54.356;10.100;2022-10-16T06:31:00;100717.13;;;11.07;100.00
58843;BME280;44614;54.356;10.100;2022-10-16T06:33:25;100726.81;;;11.10;100.00
58843;BME280;44614;54.356;10.100;2022-10-16T06:35:51;100729.72;;;11.15;100.00
58843;BME280;44614;54.356;10.100;2022-10-16T06:38:16;100734.16;;;11.16;100.00
58843;BME280;44614;54.356;10.100;2022-10-16T06:40:41;100742.38;;;11.16;100.00
58843;BME280;44614;54.356;10.100;2022-10-16T06:43:06;100725.91;;;11.16;100.00
58843;BME280;44614;54.356;10.100;2022-10-16T06:45:32;100736.19;;;11.20;100.00
58843;BME280;44614;54.356;10.100;2022-10-16T06:47:57;100731.06;;;11.24;100.00
58843;BME280;44614;54.356;10.100;2022-10-16T06:50:22;100746.28;;;11.27;100.00
58843;BME280;44614;54.356;10.100;2022-10-16T06:52:48;100743.66;;;11.32;100.00
58843;BME280;44614;54.356;10.100;2022-10-16T06:55:14;100749.31;;;11.37;100.00
58843;BME280;44614;54.356;10.100;2022-10-16T06:57:40;100747.56;;;11.42;100.00
58843;BME280;44614;54.356;10.100;2022-10-16T07:00:05;100762.06;;;11.50;100.00
58843;BME280;44614;54.356;10.100;2022-10-16T07:02:31;100766.03;;;11.54;100.00
58843;BME280;44614;54.356;10.100;2022-10-16T07:04:56;100762.59;;;11.58;100.00
58843;BME280;44614;54.356;10.100;2022-10-16T07:07:22;100759.97;;;11.63;100.00
58843;BME280;44614;54.356;10.100;2022-10-16T07:09:49;100757.59;;;11.67;100.00
58843;BME280;44614;54.356;10.100;2022-10-16T07:12:14;100762.19;;;11.73;100.00
58843;BME280;44614;54.356;10.100;2022-10-16T07:14:40;100771.28;;;11.74;100.00
58843;BME280;44614;54.356;10.100;2022-10-16T07:17:05;100773.19;;;11.73;100.00
58843;BME280;44614;54.356;10.100;2022-10-16T07:19:30;100772.09;;;11.74;100.00
58843;BME280;44614;54.356;10.100;2022-10-16T07:21:56;100778.22;;;11.76;100.00
58843;BME280;44614;54.356;10.100;2022-10-16T07:24:22;100775.47;;;11.76;100.00
58843;BME280;44614;54.356;10.100;2022-10-16T07:26:47;100779.91;;;11.77;100.00
58843;BME280;44614;54.356;10.100;2022-10-16T07:29:13;100798.06;;;11.78;100.00
58843;BME280;44614;54.356;10.100;2022-10-16T07:31:39;100794.28;;;11.79;100.00
58843;BME280;44614;54.356;10.100;2022-10-16T07:34:05;100788.28;;;11.82;100.00
58843;BME280;44614;54.356;10.100;2022-10-16T07:36:30;100790.59;;;11.85;100.00
58843;BME280;44614;54.356;10.100;2022-10-16T07:38:55;100782.97;;;11.87;100.00
58843;BME280;44614;54.356;10.100;2022-10-16T07:41:21;100782.97;;;11.87;100.00
58843;BME280;44614;54.356;10.100;2022-10-16T07:43:47;100784.66;;;11.88;100.00
58843;BME280;44614;54.356;10.100;2022-10-16T07:46:13;100783.81;;;11.88;100.00
58843;BME280;44614;54.356;10.100;2022-10-16T07:48:39;100784.41;;;11.90;100.00
58843;BME280;44614;54.356;10.100;2022-10-16T07:51:05;100780.72;;;11.96;100.00
58843;BME280;44614;54.356;10.100;2022-10-16T07:53:31;100790.81;;;12.02;100.00
58843;BME280;44614;54.356;10.100;2022-10-16T07:56:00;100792.59;;;12.08;100.00
58843;BME280;44614;54.356;10.100;2022-10-16T07:58:26;100773.50;;;12.13;100.00
58843;BME280;44614;54.356;10.100;2022-10-16T08:00:53;100777.81;;;12.21;100.00
58843;BME280;44614;54.356;10.100;2022-10-16T08:03:19;100772.44;;;12.26;100.00
58843;BME280;44614;54.356;10.100;2022-10-16T08:05:44;100793.16;;;12.29;99.88
58843;BME280;44614;54.356;10.100;2022-10-16T08:08:16;100789.09;;;12.31;99.55
58843;BME280;44614;54.356;10.100;2022-10-16T08:10:42;100784.19;;;12.33;99.50
58843;BME280;44614;54.356;10.100;2022-10-16T08:13:07;100788.16;;;12.37;99.68
58843;BME280;44614;54.356;10.100;2022-10-16T08:15:33;100788.28;;;12.42;99.64
58843;BME280;44614;54.356;10.100;2022-10-16T08:17:59;100800.50;;;12.47;98.93
58843;BME280;44614;54.356;10.100;2022-10-16T08:20:25;100798.72;;;12.52;98.80
58843;BME280;44614;54.356;10.100;2022-10-16T08:22:51;100797.75;;;12.58;99.18
58843;BME280;44614;54.356;10.100;2022-10-16T08:25:17;100793.44;;;12.62;98.96
58843;BME280;44614;54.356;10.100;2022-10-16T08:27:42;100796.56;;;12.66;98.03
58843;BME280;44614;54.356;10.100;2022-10-16T08:30:09;100795.63;;;12.72;98.44
58843;BME280;44614;54.356;10.100;2022-10-16T08:32:35;100797.06;;;12.75;97.44
58843;BME280;44614;54.356;10.100;2022-10-16T08:35:01;100802.94;;;12.78;97.79
58843;BME280;44614;54.356;10.100;2022-10-16T08:37:29;100804.97;;;12.83;97.63
58843;BME280;44614;54.356;10.100;2022-10-16T08:39:55;100810.84;;;12.86;97.33
58843;BME280;44614;54.356;10.100;2022-10-16T08:42:28;100815.66;;;12.91;97.55
58843;BME280;44614;54.356;10.100;2022-10-16T08:50:25;100834.09;;;13.02;98.35
58843;BME280;44614;54.356;10.100;2022-10-16T08:52:53;100825.34;;;13.05;98.02
58843;BME280;44614;54.356;10.100;2022-10-16T08:57:50;100830.50;;;13.13;96.34
58843;BME280;44614;54.356;10.100;2022-10-16T09:00:15;100830.63;;;13.18;97.06
58843;BME280;44614;54.356;10.100;2022-10-16T09:02:45;100834.81;;;13.21;97.07
58843;BME280;44614;54.356;10.100;2022-10-16T09:05:32;100838.81;;;13.25;96.22
58843;BME280;44614;54.356;10.100;2022-10-16T09:08:08;100841.19;;;13.33;96.27
58843;BME280;44614;54.356;10.100;2022-10-16T09:10:44;100845.50;;;13.41;95.73
58843;BME280;44614;54.356;10.100;2022-10-16T09:13:17;100841.19;;;13.45;94.95
58843;BME280;44614;54.356;10.100;2022-10-16T09:18:17;100836.72;;;13.56;94.18
58843;BME280;44614;54.356;10.100;2022-10-16T09:20:52;100833.84;;;13.62;93.88
58843;BME280;44614;54.356;10.100;2022-10-16T09:23:22;100849.19;;;13.70;93.81
58843;BME280;44614;54.356;10.100;2022-10-16T09:25:50;100842.66;;;13.76;93.23
58843;BME280;44614;54.356;10.100;2022-10-16T09:28:16;100844.47;;;13.82;91.96
58843;BME280;44614;54.356;10.100;2022-10-16T09:30:41;100856.22;;;13.89;91.34
58843;BME280;44614;54.356;10.100;2022-10-16T09:33:07;100859.88;;;13.95;90.80
58843;BME280;44614;54.356;10.100;2022-10-16T09:35:41;100870.19;;;14.00;90.27
58843;BME280;44614;54.356;10.100;2022-10-16T09:38:07;100872.25;;;14.04;89.91
58843;BME280;44614;54.356;10.100;2022-10-16T09:40:34;100881.94;;;14.07;87.63
58843;BME280;44614;54.356;10.100;2022-10-16T09:45:28;100891.53;;;14.16;88.58
58843;BME280;44614;54.356;10.100;2022-10-16T09:47:54;100886.09;;;14.21;88.25
58843;BME280;44614;54.356;10.100;2022-10-16T09:50:20;100885.63;;;14.24;88.66
58843;BME280;44614;54.356;10.100;2022-10-16T09:52:46;100879.34;;;14.29;88.04
58843;BME280;44614;54.356;10.100;2022-10-16T09:55:13;100893.00;;;14.35;88.03
58843;BME280;44614;54.356;10.100;2022-10-16T09:57:54;100888.56;;;14.34;86.21
58843;BME280;44614;54.356;10.100;2022-10-16T10:00:20;100888.56;;;14.34;86.51
58843;BME280;44614;54.356;10.100;2022-10-16T10:02:45;100893.25;;;14.34;86.61
58843;BME280;44614;54.356;10.100;2022-10-16T10:05:21;100897.34;;;14.31;86.56
58843;BME280;44614;54.356;10.100;2022-10-16T10:07:52;100904.47;;;14.27;85.63
58843;BME280;44614;54.356;10.100;2022-10-16T10:10:19;100899.78;;;14.28;86.84
58843;BME280;44614;54.356;10.100;2022-10-16T10:12:45;100906.22;;;14.33;86.04
58843;BME280;44614;54.356;10.100;2022-10-16T10:15:11;100913.03;;;14.43;85.10
58843;BME280;44614;54.356;10.100;2022-10-16T10:17:56;100913.59;;;14.56;86.25
58843;BME280;44614;54.356;10.100;2022-10-16T10:20:28;100901.91;;;14.66;84.21
58843;BME280;44614;54.356;10.100;2022-10-16T10:22:55;100912.97;;;14.66;84.54
58843;BME280;44614;54.356;10.100;2022-10-16T10:35:25;100947.25;;;14.82;83.85
58843;BME280;44614;54.356;10.100;2022-10-16T10:37:59;100941.44;;;14.83;83.54
58843;BME280;44614;54.356;10.100;2022-10-16T10:43:12;100938.75;;;14.72;84.74
58843;BME280;44614;54.356;10.100;2022-10-16T10:45:44;100950.56;;;14.67;84.39
58843;BME280;44614;54.356;10.100;2022-10-16T10:48:20;100941.03;;;14.75;85.02
58843;BME280;44614;54.356;10.100;2022-10-16T10:50:49;100952.28;;;14.85;84.03
58843;BME280;44614;54.356;10.100;2022-10-16T10:53:36;100939.47;;;14.96;83.80
58843;BME280;44614;54.356;10.100;2022-10-16T10:56:24;100940.72;;;15.05;81.89
58843;BME280;44614;54.356;10.100;2022-10-16T10:58:56;100951.03;;;15.09;80.44
58843;BME280;44614;54.356;10.100;2022-10-16T11:01:39;100954.22;;;15.18;81.54
58843;BME280;44614;54.356;10.100;2022-10-16T11:04:15;100963.19;;;15.25;79.88
58843;BME280;44614;54.356;10.100;2022-10-16T11:06:45;100958.59;;;15.31;79.75
58843;BME280;44614;54.356;10.100;2022-10-16T11:09:17;100955.16;;;15.41;78.52
58843;BME280;44614;54.356;10.100;2022-10-16T11:11:45;100957.75;;;15.47;78.42
58843;BME280;44614;54.356;10.100;2022-10-16T11:14:16;100976.53;;;15.45;76.65
58843;BME280;44614;54.356;10.100;2022-10-16T11:16:54;100974.50;;;15.41;76.29
58843;BME280;44614;54.356;10.100;2022-10-16T11:19:31;100980.53;;;15.38;77.65
58843;BME280;44614;54.356;10.100;2022-10-16T11:22:20;100983.25;;;15.32;77.33
58843;BME280;44614;54.356;10.100;2022-10-16T11:29:59;100995.00;;;15.23;78.63
58843;BME280;44614;54.356;10.100;2022-10-16T11:32:32;100998.09;;;15.26;78.20
58843;BME280;44614;54.356;10.100;2022-10-16T11:35:05;100998.25;;;15.36;78.10
58843;BME280;44614;54.356;10.100;2022-10-16T11:37:41;101005.41;;;15.49;76.84
58843;BME280;44614;54.356;10.100;2022-10-16T11:40:17;101008.56;;;15.58;75.43
58843;BME280;44614;54.356;10.100;2022-10-16T11:42:46;100929.00;;;15.15;73.85
58843;BME280;44614;54.356;10.100;2022-10-16T11:47:43;101010.94;;;15.66;74.25
58843;BME280;44614;54.356;10.100;2022-10-16T11:55:44;101019.97;;;15.62;72.65
58843;BME280;44614;54.356;10.100;2022-10-16T11:58:16;101023.13;;;15.65;73.65
58843;BME280;44614;54.356;10.100;2022-10-16T12:00:52;101033.22;;;15.59;69.82
58843;BME280;44614;54.356;10.100;2022-10-16T12:05:55;101030.78;;;15.63;71.16
58843;BME280;44614;54.356;10.100;2022-10-16T12:08:24;101039.59;;;15.60;71.61
58843;BME280;44614;54.356;10.100;2022-10-16T12:10:50;101041.13;;;15.51;69.87
58843;BME280;44614;54.356;10.100;2022-10-16T12:16:03;101058.38;;;15.41;70.61
58843;BME280;44614;54.356;10.100;2022-10-16T12:18:29;101058.78;;;15.33;70.17
58843;BME280;44614;54.356;10.100;2022-10-16T12:20:57;101084.53;;;15.33;71.16
58843;BME280;44614;54.356;10.100;2022-10-16T12:23:24;101070.81;;;15.55;70.14
58843;BME280;44614;54.356;10.100;2022-10-16T12:25:57;101061.00;;;15.65;68.69
58843;BME280;44614;54.356;10.100;2022-10-16T12:28:28;101072.69;;;15.67;69.77
58843;BME280;44614;54.356;10.100;2022-10-16T12:30:57;101061.88;;;15.65;70.26
58843;BME280;44614;54.356;10.100;2022-10-16T12:33:25;101068.97;;;15.61;69.96
58843;BME280;44614;54.356;10.100;2022-10-16T12:35:50;101080.91;;;15.78;68.49
58843;BME280;44614;54.356;10.100;2022-10-16T12:40:41;101089.41;;;15.60;71.00
58843;BME280;44614;54.356;10.100;2022-10-16T12:43:27;101091.75;;;15.80;70.66
58843;BME280;44614;54.356;10.100;2022-10-16T12:48:44;101108.38;;;15.51;70.67
58843;BME280;44614;54.356;10.100;2022-10-16T12:53:36;101119.22;;;15.24;70.11
58843;BME280;44614;54.356;10.100;2022-10-16T12:56:20;101111.91;;;15.18;70.34
58843;BME280;44614;54.356;10.100;2022-10-16T13:04:00;101120.41;;;15.91;66.52
58843;BME280;44614;54.356;10.100;2022-10-16T13:09:13;101107.38;;;16.42;62.04
58843;BME280;44614;54.356;10.100;2022-10-16T13:11:57;101122.94;;;16.65;62.35
58843;BME280;44614;54.356;10.100;2022-10-16T13:14:29;101124.56;;;16.83;61.06
58843;BME280;44614;54.356;10.100;2022-10-16T13:19:38;101136.13;;;16.96;59.26
58843;BME280;44614;54.356;10.100;2022-10-16T13:25:10;101150.50;;;17.15;60.15
58843;BME280;44614;54.356;10.100;2022-10-16T13:27:47;101152.91;;;17.28;61.79
58843;BME280;44614;54.356;10.100;2022-10-16T13:30:17;101151.16;;;17.22;60.21
58843;BME280;44614;54.356;10.100;2022-10-16T13:32:46;101156.09;;;17.20;60.74
58843;BME280;44614;54.356;10.100;2022-10-16T13:35:20;101160.63;;;17.26;61.23
58843;BME280;44614;54.356;10.100;2022-10-16T13:37:46;101171.69;;;17.21;61.76
58843;BME280;44614;54.356;10.100;2022-10-16T13:40:21;101178.56;;;17.19;62.61
58843;BME280;44614;54.356;10.100;2022-10-16T13:42:47;101185.28;;;17.23;62.48
58843;BME280;44614;54.356;10.100;2022-10-16T13:45:51;101178.06;;;17.22;61.67
58843;BME280;44614;54.356;10.100;2022-10-16T13:48:05;101193.88;;;17.21;60.89
58843;BME280;44614;54.356;10.100;2022-10-16T13:50:30;101201.38;;;16.99;60.48
58843;BME280;44614;54.356;10.100;2022-10-16T13:53:14;101200.00;;;17.01;59.95
58843;BME280;44614;54.356;10.100;2022-10-16T13:55:39;101206.91;;;16.99;60.89